Terminal Aerodrome Forecast
Issued by NWS

Home | Current Version | Previous Version | Text Only | Print | Product List | Glossary On
Versions: 1 2 3 4 5 6 7 8 9 10 11 12 13 14 15 16 17
000
FTUS42 KMLB 031749
TAFLEE
TAF
KLEE 031749Z 0318/0418 21011G18KT P6SM -SHRA SCT010 BKN035 OVC070
      TEMPO 0318/0321 -SHRA BKN010
     FM040000 22008KT P6SM VCSH SCT010 BKN030 OVC120
     FM041400 23008KT P6SM SCT030 SCT100 OVC250=

USA.gov is the U.S. government's official web portal to all federal, state and local government web resources and services.